Branchville, Alabama
Current Conditions -  °F | °C
As of 2:53 PM on Friday 28 Nov 2014 (Local Time) from KBHM Reporting Station
Clear Clear  
Wind Chill: 52°   Ceiling: Unl
Heat Index: 52°   Visibility: 10mi
Dew Point: 14°   Wind: 0mph
Humidity: 22%   Direction: NA
Pressure: 30.31"   Gusts: NA
Location:  33.6693°N, 86.4042°W
Report Text: KBHM 282053Z 00000KT 10SM CLR 11/M10 A3031 RMK AO2 SLP265 T01111100 56028
Loading
Personal Weather Stations






























Interactive Weather Map New forecast layout! Learn more

10-Day Weather Forecast

Advertisements
Track Severe Weather on mobile